sensor_id;sensor_type;location;lat;lon;timestamp;P1;durP1;ratioP1;P2;durP2;ratioP2
77148;SDS011;66122;47.130;16.844;2024-03-23T01:03:38;0.30;;;0.10;;
77148;SDS011;66122;47.130;16.844;2024-03-23T01:13:39;0.38;;;0.20;;
77148;SDS011;66122;47.130;16.844;2024-03-23T01:23:41;0.40;;;0.20;;
77148;SDS011;66122;47.130;16.844;2024-03-23T01:33:43;0.30;;;0.20;;
77148;SDS011;66122;47.130;16.844;2024-03-23T01:43:44;0.20;;;0.10;;
77148;SDS011;66122;47.130;16.844;2024-03-23T01:53:46;0.40;;;0.30;;
77148;SDS011;66122;47.130;16.844;2024-03-23T02:03:47;0.40;;;0.20;;
77148;SDS011;66122;47.130;16.844;2024-03-23T02:13:49;0.30;;;0.20;;
77148;SDS011;66122;47.130;16.844;2024-03-23T02:23:51;0.40;;;0.20;;
77148;SDS011;66122;47.130;16.844;2024-03-23T02:33:54;0.30;;;0.10;;
77148;SDS011;66122;47.130;16.844;2024-03-23T02:43:56;0.30;;;0.20;;
77148;SDS011;66122;47.130;16.844;2024-03-23T02:53:58;0.30;;;0.15;;
77148;SDS011;66122;47.130;16.844;2024-03-23T03:04:00;0.33;;;0.20;;
77148;SDS011;66122;47.130;16.844;2024-03-23T03:14:01;0.37;;;0.20;;
77148;SDS011;66122;47.130;16.844;2024-03-23T03:24:05;0.40;;;0.20;;
77148;SDS011;66122;47.130;16.844;2024-03-23T03:34:07;0.30;;;0.20;;
77148;SDS011;66122;47.130;16.844;2024-03-23T03:44:09;0.40;;;0.30;;
77148;SDS011;66122;47.130;16.844;2024-03-23T03:54:10;0.30;;;0.20;;
77148;SDS011;66122;47.130;16.844;2024-03-23T04:04:12;0.40;;;0.30;;
77148;SDS011;66122;47.130;16.844;2024-03-23T04:14:15;0.30;;;0.20;;
77148;SDS011;66122;47.130;16.844;2024-03-23T04:24:16;0.33;;;0.20;;
77148;SDS011;66122;47.130;16.844;2024-03-23T04:34:23;0.40;;;0.30;;
77148;SDS011;66122;47.130;16.844;2024-03-23T04:44:25;0.37;;;0.20;;
77148;SDS011;66122;47.130;16.844;2024-03-23T04:54:26;0.30;;;0.20;;
77148;SDS011;66122;47.130;16.844;2024-03-23T05:04:30;0.38;;;0.25;;
77148;SDS011;66122;47.130;16.844;2024-03-23T05:14:33;0.30;;;0.20;;
77148;SDS011;66122;47.130;16.844;2024-03-23T05:24:34;0.50;;;0.33;;
77148;SDS011;66122;47.130;16.844;2024-03-23T05:34:36;0.40;;;0.22;;
77148;SDS011;66122;47.130;16.844;2024-03-23T05:44:37;0.40;;;0.30;;
77148;SDS011;66122;47.130;16.844;2024-03-23T05:54:39;0.40;;;0.30;;
77148;SDS011;66122;47.130;16.844;2024-03-23T06:04:41;0.30;;;0.20;;
77148;SDS011;66122;47.130;16.844;2024-03-23T06:14:42;0.30;;;0.10;;
77148;SDS011;66122;47.130;16.844;2024-03-23T06:24:44;0.40;;;0.30;;
77148;SDS011;66122;47.130;16.844;2024-03-23T06:34:45;0.30;;;0.20;;
77148;SDS011;66122;47.130;16.844;2024-03-23T06:44:47;0.40;;;0.30;;
77148;SDS011;66122;47.130;16.844;2024-03-23T06:54:48;0.30;;;0.20;;
77148;SDS011;66122;47.130;16.844;2024-03-23T07:04:50;0.30;;;0.20;;
77148;SDS011;66122;47.130;16.844;2024-03-23T07:14:52;0.40;;;0.30;;
77148;SDS011;66122;47.130;16.844;2024-03-23T07:24:53;0.60;;;0.50;;
77148;SDS011;66122;47.130;16.844;2024-03-23T07:34:55;0.50;;;0.30;;
77148;SDS011;66122;47.130;16.844;2024-03-23T07:44:57;0.43;;;0.30;;
77148;SDS011;66122;47.130;16.844;2024-03-23T07:54:58;0.50;;;0.32;;
77148;SDS011;66122;47.130;16.844;2024-03-23T08:05:00;0.60;;;0.50;;
77148;SDS011;66122;47.130;16.844;2024-03-23T08:15:01;0.40;;;0.20;;
77148;SDS011;66122;47.130;16.844;2024-03-23T08:25:03;0.63;;;0.55;;
77148;SDS011;66122;47.130;16.844;2024-03-23T08:35:07;0.40;;;0.20;;
77148;SDS011;66122;47.130;16.844;2024-03-23T08:45:11;0.70;;;0.63;;
77148;SDS011;66122;47.130;16.844;2024-03-23T08:55:12;0.57;;;0.40;;
77148;SDS011;66122;47.130;16.844;2024-03-23T09:05:15;0.50;;;0.40;;
77148;SDS011;66122;47.130;16.844;2024-03-23T09:15:16;0.53;;;0.40;;
77148;SDS011;66122;47.130;16.844;2024-03-23T09:25:18;0.67;;;0.60;;
77148;SDS011;66122;47.130;16.844;2024-03-23T09:35:19;0.60;;;0.40;;
77148;SDS011;66122;47.130;16.844;2024-03-23T09:45:22;0.70;;;0.60;;
77148;SDS011;66122;47.130;16.844;2024-03-23T09:55:28;0.60;;;0.40;;
77148;SDS011;66122;47.130;16.844;2024-03-23T10:05:30;0.50;;;0.30;;
77148;SDS011;66122;47.130;16.844;2024-03-23T10:15:40;0.60;;;0.33;;
77148;SDS011;66122;47.130;16.844;2024-03-23T10:25:42;0.80;;;0.80;;
77148;SDS011;66122;47.130;16.844;2024-03-23T10:35:44;0.60;;;0.45;;
77148;SDS011;66122;47.130;16.844;2024-03-23T10:45:49;0.80;;;0.73;;
77148;SDS011;66122;47.130;16.844;2024-03-23T10:55:51;0.83;;;0.83;;
77148;SDS011;66122;47.130;16.844;2024-03-23T11:05:54;0.73;;;0.67;;
77148;SDS011;66122;47.130;16.844;2024-03-23T11:15:58;0.70;;;0.55;;
77148;SDS011;66122;47.130;16.844;2024-03-23T11:26:14;0.70;;;0.70;;
77148;SDS011;66122;47.130;16.844;2024-03-23T11:36:19;0.70;;;0.53;;
77148;SDS011;66122;47.130;16.844;2024-03-23T11:46:23;0.63;;;0.50;;
77148;SDS011;66122;47.130;16.844;2024-03-23T11:56:25;0.60;;;0.40;;
77148;SDS011;66122;47.130;16.844;2024-03-23T12:06:26;0.77;;;0.77;;
77148;SDS011;66122;47.130;16.844;2024-03-23T12:16:28;0.60;;;0.40;;
77148;SDS011;66122;47.130;16.844;2024-03-23T12:26:29;0.60;;;0.50;;
77148;SDS011;66122;47.130;16.844;2024-03-23T12:36:31;0.70;;;0.50;;
77148;SDS011;66122;47.130;16.844;2024-03-23T12:46:32;0.80;;;0.60;;
77148;SDS011;66122;47.130;16.844;2024-03-23T12:56:34;0.80;;;0.80;;
77148;SDS011;66122;47.130;16.844;2024-03-23T13:06:36;1.13;;;1.03;;
77148;SDS011;66122;47.130;16.844;2024-03-23T13:16:37;0.83;;;0.73;;
77148;SDS011;66122;47.130;16.844;2024-03-23T13:26:39;1.50;;;1.40;;
77148;SDS011;66122;47.130;16.844;2024-03-23T13:36:44;0.90;;;0.77;;
77148;SDS011;66122;47.130;16.844;2024-03-23T13:46:46;1.37;;;1.27;;
77148;SDS011;66122;47.130;16.844;2024-03-23T13:56:49;1.23;;;1.13;;
77148;SDS011;66122;47.130;16.844;2024-03-23T14:06:51;1.43;;;1.33;;
77148;SDS011;66122;47.130;16.844;2024-03-23T14:16:53;0.97;;;0.87;;
77148;SDS011;66122;47.130;16.844;2024-03-23T14:26:56;0.93;;;0.83;;
77148;SDS011;66122;47.130;16.844;2024-03-23T14:36:58;1.00;;;0.90;;
77148;SDS011;66122;47.130;16.844;2024-03-23T14:47:01;1.70;;;1.60;;
77148;SDS011;66122;47.130;16.844;2024-03-23T14:57:03;1.00;;;0.90;;
77148;SDS011;66122;47.130;16.844;2024-03-23T15:07:05;0.90;;;0.70;;
77148;SDS011;66122;47.130;16.844;2024-03-23T15:17:07;0.90;;;0.80;;
77148;SDS011;66122;47.130;16.844;2024-03-23T15:27:10;1.23;;;1.13;;
77148;SDS011;66122;47.130;16.844;2024-03-23T15:37:12;1.23;;;1.13;;
77148;SDS011;66122;47.130;16.844;2024-03-23T15:47:13;0.90;;;0.87;;
77148;SDS011;66122;47.130;16.844;2024-03-23T15:57:16;0.60;;;0.53;;
77148;SDS011;66122;47.130;16.844;2024-03-23T16:07:18;0.50;;;0.40;;
77148;SDS011;66122;47.130;16.844;2024-03-23T16:17:19;0.40;;;0.20;;
77148;SDS011;66122;47.130;16.844;2024-03-23T16:27:21;0.53;;;0.40;;
77148;SDS011;66122;47.130;16.844;2024-03-23T16:37:22;0.40;;;0.20;;
77148;SDS011;66122;47.130;16.844;2024-03-23T16:47:24;0.40;;;0.30;;
77148;SDS011;66122;47.130;16.844;2024-03-23T16:57:26;0.30;;;0.20;;
77148;SDS011;66122;47.130;16.844;2024-03-23T17:07:28;0.53;;;0.47;;
77148;SDS011;66122;47.130;16.844;2024-03-23T17:17:31;0.30;;;0.20;;
77148;SDS011;66122;47.130;16.844;2024-03-23T17:27:33;0.40;;;0.20;;
77148;SDS011;66122;47.130;16.844;2024-03-23T17:37:36;0.40;;;0.20;;
77148;SDS011;66122;47.130;16.844;2024-03-23T17:47:38;0.30;;;0.10;;
77148;SDS011;66122;47.130;16.844;2024-03-23T17:57:40;0.30;;;0.10;;
77148;SDS011;66122;47.130;16.844;2024-03-23T18:07:42;0.30;;;0.10;;
77148;SDS011;66122;47.130;16.844;2024-03-23T18:17:44;0.27;;;0.10;;
77148;SDS011;66122;47.130;16.844;2024-03-23T18:27:45;0.30;;;0.15;;
77148;SDS011;66122;47.130;16.844;2024-03-23T18:37:48;0.20;;;0.10;;
77148;SDS011;66122;47.130;16.844;2024-03-23T18:47:49;0.40;;;0.20;;
77148;SDS011;66122;47.130;16.844;2024-03-23T18:57:51;0.30;;;0.10;;
77148;SDS011;66122;47.130;16.844;2024-03-23T19:07:53;0.30;;;0.20;;
77148;SDS011;66122;47.130;16.844;2024-03-23T19:17:54;0.30;;;0.20;;
77148;SDS011;66122;47.130;16.844;2024-03-23T19:27:56;0.30;;;0.10;;
77148;SDS011;66122;47.130;16.844;2024-03-23T19:37:59;0.22;;;0.10;;
77148;SDS011;66122;47.130;16.844;2024-03-23T19:48:00;0.30;;;0.20;;
77148;SDS011;66122;47.130;16.844;2024-03-23T19:58:03;0.20;;;0.10;;
77148;SDS011;66122;47.130;16.844;2024-03-23T20:08:05;0.20;;;0.10;;
77148;SDS011;66122;47.130;16.844;2024-03-23T20:18:11;0.30;;;0.17;;
77148;SDS011;66122;47.130;16.844;2024-03-23T20:28:12;0.30;;;0.10;;
77148;SDS011;66122;47.130;16.844;2024-03-23T20:38:15;0.30;;;0.10;;
77148;SDS011;66122;47.130;16.844;2024-03-23T20:48:20;0.30;;;0.20;;
77148;SDS011;66122;47.130;16.844;2024-03-23T20:58:25;0.30;;;0.20;;
77148;SDS011;66122;47.130;16.844;2024-03-23T21:08:27;0.30;;;0.10;;
77148;SDS011;66122;47.130;16.844;2024-03-23T21:18:29;0.20;;;0.10;;
77148;SDS011;66122;47.130;16.844;2024-03-23T21:28:31;0.30;;;0.20;;
77148;SDS011;66122;47.130;16.844;2024-03-23T21:38:33;0.20;;;0.10;;
77148;SDS011;66122;47.130;16.844;2024-03-23T21:48:34;0.40;;;0.20;;
77148;SDS011;66122;47.130;16.844;2024-03-23T21:58:36;0.20;;;0.10;;
77148;SDS011;66122;47.130;16.844;2024-03-23T22:08:37;0.30;;;0.20;;
77148;SDS011;66122;47.130;16.844;2024-03-23T22:18:39;0.30;;;0.20;;
77148;SDS011;66122;47.130;16.844;2024-03-23T22:28:41;0.30;;;0.20;;
77148;SDS011;66122;47.130;16.844;2024-03-23T22:38:42;0.30;;;0.20;;
77148;SDS011;66122;47.130;16.844;2024-03-23T22:48:43;0.30;;;0.10;;
77148;SDS011;66122;47.130;16.844;2024-03-23T22:58:45;0.20;;;0.10;;
77148;SDS011;66122;47.130;16.844;2024-03-23T23:08:47;0.30;;;0.10;;
77148;SDS011;66122;47.130;16.844;2024-03-23T23:18:49;0.20;;;0.10;;
77148;SDS011;66122;47.130;16.844;2024-03-23T23:28:51;0.20;;;0.10;;
77148;SDS011;66122;47.130;16.844;2024-03-23T23:38:52;0.20;;;0.10;;
77148;SDS011;66122;47.130;16.844;2024-03-23T23:48:54;0.40;;;0.30;;
77148;SDS011;66122;47.130;16.844;2024-03-23T23:58:57;0.30;;;0.10;;
